createdAt,value
2023-05-15T00:00:15.255Z,11.09
2023-05-15T00:01:17.794Z,9.52
2023-05-15T00:02:19.773Z,8.59
2023-05-15T00:03:21.900Z,8.67
2023-05-15T00:04:23.906Z,8.14
2023-05-15T00:05:26.241Z,9.09
2023-05-15T00:06:28.622Z,9.09
2023-05-15T00:07:30.791Z,8.77
2023-05-15T00:08:32.629Z,8.05
2023-05-15T00:09:34.594Z,8.98
2023-05-15T00:10:37.300Z,7.92
2023-05-15T00:11:39.350Z,7.50
2023-05-15T00:12:41.299Z,7.79
2023-05-15T00:13:43.164Z,7.54
2023-05-15T00:14:44.996Z,7.26
2023-05-15T00:15:46.887Z,7.07
2023-05-15T00:16:48.907Z,6.83
2023-05-15T00:17:50.790Z,6.45
2023-05-15T00:18:52.803Z,7.03
2023-05-15T00:19:54.833Z,6.94
2023-05-15T00:20:56.772Z,7.06
2023-05-15T00:21:58.623Z,7.14
2023-05-15T00:23:00.471Z,6.65
2023-05-15T00:24:03.186Z,6.62
2023-05-15T00:25:06.173Z,7.74
2023-05-15T00:26:08.348Z,7.32
2023-05-15T00:27:10.229Z,6.85
2023-05-15T00:28:12.198Z,6.65
2023-05-15T00:29:14.042Z,6.73
2023-05-15T00:30:16.235Z,6.35
2023-05-15T00:31:18.176Z,7.47
2023-05-15T00:32:20.336Z,7.77
2023-05-15T00:33:22.195Z,7.76
2023-05-15T00:34:24.650Z,8.24
2023-05-15T00:35:26.791Z,7.61
2023-05-15T00:36:28.994Z,7.10
2023-05-15T00:37:30.978Z,7.85
2023-05-15T00:38:32.880Z,7.51
2023-05-15T00:39:35.617Z,8.30
2023-05-15T00:40:39.669Z,7.68
2023-05-15T00:41:44.444Z,7.53
2023-05-15T00:42:47.466Z,7.51
2023-05-15T00:43:50.347Z,8.27
2023-05-15T00:44:53.493Z,7.68
2023-05-15T00:45:57.114Z,6.65
2023-05-15T00:47:02.608Z,7.98
2023-05-15T00:48:06.912Z,7.31
2023-05-15T00:49:09.925Z,7.78
2023-05-15T00:50:12.735Z,7.30
2023-05-15T00:51:15.298Z,7.96
2023-05-15T00:52:17.573Z,7.79
2023-05-15T00:53:19.648Z,7.46
2023-05-15T00:54:21.650Z,7.72
2023-05-15T00:55:27.975Z,7.46
2023-05-15T00:56:32.288Z,7.63
2023-05-15T00:57:35.213Z,7.58
2023-05-15T00:58:38.143Z,7.78
2023-05-15T00:59:41.887Z,8.16
2023-05-15T01:00:46.222Z,7.15
2023-05-15T01:01:49.720Z,7.59
2023-05-15T01:02:53.214Z,7.44
2023-05-15T01:03:55.472Z,7.04
2023-05-15T01:04:57.864Z,7.29
2023-05-15T01:06:00.172Z,6.78
2023-05-15T01:07:02.831Z,7.02
2023-05-15T01:08:14.486Z,7.31
2023-05-15T01:09:18.305Z,7.28
2023-05-15T01:10:21.115Z,7.36
2023-05-15T01:11:26.419Z,7.12
2023-05-15T01:12:31.267Z,7.41
2023-05-15T01:13:33.748Z,7.88
2023-05-15T01:14:35.615Z,7.25
2023-05-15T01:15:37.589Z,7.57
2023-05-15T01:16:39.742Z,7.75
2023-05-15T01:17:41.976Z,7.80
2023-05-15T01:18:44.160Z,7.62
2023-05-15T01:19:50.066Z,7.39
2023-05-15T01:21:15.703Z,7.42
2023-05-15T01:22:26.960Z,8.29
2023-05-15T01:23:58.827Z,8.06
2023-05-15T01:25:24.843Z,8.41
2023-05-15T01:26:55.403Z,7.19
2023-05-15T01:29:43.526Z,8.76
2023-05-15T01:30:48.037Z,8.07
2023-05-15T01:31:53.671Z,8.06
2023-05-15T01:33:20.038Z,7.49
2023-05-15T01:34:25.209Z,8.43
2023-05-15T01:35:39.813Z,8.22
2023-05-15T01:36:51.855Z,8.20
2023-05-15T01:39:17.196Z,8.01
2023-05-15T01:40:22.983Z,8.01
2023-05-15T01:41:34.491Z,7.73
2023-05-15T01:42:40.185Z,8.46
2023-05-15T01:43:45.230Z,7.54
2023-05-15T01:44:51.006Z,8.21
2023-05-15T01:45:54.717Z,7.97
2023-05-15T01:47:06.285Z,8.02
2023-05-15T01:48:10.122Z,7.76
2023-05-15T01:49:16.627Z,7.97
2023-05-15T01:50:20.677Z,7.97
2023-05-15T01:51:25.711Z,7.47
2023-05-15T01:52:34.140Z,7.67
2023-05-15T01:53:37.756Z,8.38
2023-05-15T01:54:41.735Z,7.75
2023-05-15T01:55:44.904Z,7.61
2023-05-15T01:56:47.675Z,8.24
2023-05-15T01:57:51.539Z,7.03
2023-05-15T01:58:55.350Z,7.18
2023-05-15T01:59:59.145Z,7.16
2023-05-15T02:01:01.540Z,7.51
2023-05-15T02:02:07.852Z,7.21
2023-05-15T02:03:10.832Z,7.77
2023-05-15T02:04:13.692Z,7.57
2023-05-15T02:05:17.206Z,7.54
2023-05-15T02:06:20.718Z,7.35
2023-05-15T02:07:24.218Z,6.99
2023-05-15T02:08:26.820Z,7.10
2023-05-15T02:09:31.090Z,7.09
2023-05-15T02:10:34.786Z,7.49
2023-05-15T02:11:38.856Z,14.33
2023-05-15T02:12:41.794Z,11.03
2023-05-15T02:13:44.165Z,9.43
2023-05-15T02:14:48.613Z,8.23
2023-05-15T02:15:50.729Z,7.92
2023-05-15T02:16:52.973Z,7.28
2023-05-15T02:17:55.145Z,7.50
2023-05-15T02:18:57.321Z,7.31
2023-05-15T02:19:59.311Z,7.07
2023-05-15T02:21:01.321Z,7.56
2023-05-15T02:22:03.431Z,6.77
2023-05-15T02:23:05.299Z,7.39
2023-05-15T02:24:07.143Z,7.53
2023-05-15T02:25:09.042Z,7.09
2023-05-15T02:26:24.562Z,7.77
2023-05-15T02:27:29.659Z,7.71
2023-05-15T02:28:35.343Z,8.47
2023-05-15T02:29:57.595Z,7.59
2023-05-15T02:33:46.621Z,7.36
2023-05-15T02:35:09.052Z,8.04
2023-05-15T02:36:15.021Z,8.37
2023-05-15T02:37:20.810Z,7.86
2023-05-15T02:38:26.581Z,8.02
2023-05-15T02:39:31.415Z,8.62
2023-05-15T02:40:35.434Z,8.07
2023-05-15T02:41:40.294Z,8.33
2023-05-15T02:42:45.231Z,8.34
2023-05-15T02:43:51.890Z,8.27
2023-05-15T02:44:55.206Z,8.20
2023-05-15T02:45:58.920Z,8.89
2023-05-15T02:47:01.710Z,8.46
2023-05-15T02:48:05.595Z,8.46
2023-05-15T02:49:08.884Z,7.62
2023-05-15T02:50:13.361Z,8.03
2023-05-15T02:51:15.332Z,8.08
2023-05-15T02:52:17.535Z,7.89
2023-05-15T02:53:19.721Z,8.80
2023-05-15T02:54:22.179Z,8.43
2023-05-15T02:55:24.350Z,8.27
2023-05-15T02:56:26.666Z,8.43
2023-05-15T02:57:29.007Z,7.93
2023-05-15T02:58:31.806Z,8.09
2023-05-15T02:59:35.200Z,8.34
2023-05-15T03:00:37.282Z,8.34
2023-05-15T03:01:39.295Z,8.39
2023-05-15T03:02:41.719Z,8.07
2023-05-15T03:03:43.697Z,8.03
2023-05-15T03:04:46.077Z,7.79
2023-05-15T03:05:48.723Z,8.51
2023-05-15T03:06:51.238Z,8.34
2023-05-15T03:07:53.279Z,8.85
2023-05-15T03:08:55.314Z,9.44
2023-05-15T03:09:57.171Z,8.31
2023-05-15T03:10:59.261Z,7.87
2023-05-15T03:12:01.225Z,7.55
2023-05-15T03:13:03.208Z,8.15
2023-05-15T03:14:05.122Z,8.63
2023-05-15T03:15:08.153Z,9.19
2023-05-15T03:16:10.423Z,8.03
2023-05-15T03:17:12.486Z,9.21
2023-05-15T03:18:17.300Z,10.05
2023-05-15T03:19:19.088Z,10.11
2023-05-15T03:20:22.028Z,10.97
2023-05-15T03:21:24.166Z,12.63
2023-05-15T03:22:26.205Z,11.92
2023-05-15T03:23:28.172Z,12.21
2023-05-15T03:24:30.278Z,10.73
2023-05-15T03:25:32.307Z,10.20
2023-05-15T03:26:34.277Z,9.28
2023-05-15T03:27:36.774Z,9.77
2023-05-15T03:28:39.649Z,9.45
2023-05-15T03:29:42.663Z,10.26
2023-05-15T03:30:45.547Z,9.55
2023-05-15T03:31:47.447Z,9.86
2023-05-15T03:32:50.324Z,9.55
2023-05-15T03:33:53.154Z,8.71
2023-05-15T03:34:55.295Z,9.97
2023-05-15T03:35:57.360Z,9.85
2023-05-15T03:36:59.325Z,9.53
2023-05-15T03:38:01.292Z,8.72
2023-05-15T03:39:03.231Z,9.57
2023-05-15T03:40:07.079Z,9.19
2023-05-15T03:41:10.733Z,9.35
2023-05-15T03:42:12.669Z,9.74
2023-05-15T03:43:14.630Z,9.62
2023-05-15T03:44:16.499Z,9.83
2023-05-15T03:45:19.208Z,9.45
2023-05-15T03:46:21.422Z,9.51
2023-05-15T03:47:25.006Z,9.64
2023-05-15T03:48:27.136Z,9.72
2023-05-15T03:49:29.082Z,9.66
2023-05-15T03:50:31.335Z,9.63
2023-05-15T03:51:33.303Z,9.99
2023-05-15T03:52:35.296Z,10.81
2023-05-15T03:53:37.679Z,10.46
2023-05-15T03:54:40.194Z,10.21
2023-05-15T03:55:42.158Z,10.49
2023-05-15T03:56:44.258Z,10.29
2023-05-15T03:57:46.116Z,10.35
2023-05-15T03:58:47.990Z,10.07
2023-05-15T03:59:49.860Z,10.65
2023-05-15T04:00:51.901Z,10.74
2023-05-15T04:02:04.112Z,11.60
2023-05-15T04:02:57.702Z,11.66
2023-05-15T04:03:59.701Z,10.85
2023-05-15T04:05:06.967Z,10.39
2023-05-15T04:06:09.363Z,10.86
2023-05-15T04:07:11.250Z,10.66
2023-05-15T04:08:13.132Z,10.78
2023-05-15T04:09:15.119Z,10.42
2023-05-15T04:10:18.651Z,11.68
2023-05-15T04:11:20.506Z,10.44
2023-05-15T04:12:22.387Z,11.00
2023-05-15T04:13:24.547Z,11.20
2023-05-15T04:14:28.860Z,10.60
2023-05-15T04:15:30.734Z,11.35
2023-05-15T04:16:32.724Z,10.96
2023-05-15T04:17:34.828Z,10.77
2023-05-15T04:18:36.912Z,10.48
2023-05-15T04:19:40.383Z,10.74
2023-05-15T04:20:43.046Z,10.16
2023-05-15T04:21:44.901Z,10.66
2023-05-15T04:22:48.194Z,10.77
2023-05-15T04:23:50.059Z,11.48
2023-05-15T04:24:51.913Z,11.23
2023-05-15T04:25:53.969Z,10.76
2023-05-15T04:26:56.148Z,11.17
2023-05-15T04:27:58.636Z,10.99
2023-05-15T04:29:04.590Z,10.54
2023-05-15T04:30:06.338Z,11.40
2023-05-15T04:31:08.238Z,12.39
2023-05-15T04:32:10.244Z,11.58
2023-05-15T04:33:13.352Z,12.11
2023-05-15T04:34:15.490Z,12.47
2023-05-15T04:35:17.412Z,12.43
2023-05-15T04:36:19.732Z,11.54
2023-05-15T04:37:21.914Z,30.41
2023-05-15T04:38:23.803Z,32.67
2023-05-15T04:39:26.866Z,13.63
2023-05-15T04:40:29.158Z,12.47
2023-05-15T04:41:31.114Z,12.91
2023-05-15T04:42:33.814Z,12.84
2023-05-15T04:43:35.661Z,12.34
2023-05-15T04:44:37.563Z,12.04
2023-05-15T04:45:39.434Z,12.43
2023-05-15T04:46:41.743Z,11.17
2023-05-15T04:47:43.738Z,12.21
2023-05-15T04:48:45.849Z,12.22
2023-05-15T04:49:47.845Z,12.21
2023-05-15T04:50:50.179Z,12.61
2023-05-15T04:51:52.187Z,11.98
2023-05-15T04:52:54.163Z,11.15
2023-05-15T04:53:56.309Z,11.41
2023-05-15T04:54:58.249Z,11.61
2023-05-15T04:56:00.252Z,11.62
2023-05-15T04:57:02.448Z,11.19
2023-05-15T04:58:04.472Z,10.61
2023-05-15T04:59:06.351Z,10.35
2023-05-15T05:00:10.056Z,9.07
2023-05-15T05:01:12.198Z,8.63
2023-05-15T05:02:14.242Z,8.57
2023-05-15T05:03:16.505Z,9.22
2023-05-15T05:04:18.527Z,8.68
2023-05-15T05:05:20.394Z,10.99
2023-05-15T05:06:23.454Z,9.94
2023-05-15T05:07:25.420Z,9.90
2023-05-15T05:08:27.392Z,9.57
2023-05-15T05:09:29.258Z,8.72
2023-05-15T05:10:31.553Z,9.33
2023-05-15T05:11:33.533Z,9.15
2023-05-15T05:12:35.589Z,10.43
2023-05-15T05:13:37.451Z,8.63
2023-05-15T05:14:39.582Z,9.65
2023-05-15T05:15:41.626Z,9.16
2023-05-15T05:16:44.690Z,9.10
2023-05-15T05:17:46.687Z,8.81
2023-05-15T05:18:48.697Z,9.47
2023-05-15T05:19:50.717Z,7.84
2023-05-15T05:21:02.036Z,10.59
2023-05-15T05:22:07.108Z,8.59
2023-05-15T05:23:09.057Z,7.48
2023-05-15T05:24:12.038Z,8.32
2023-05-15T05:25:13.929Z,7.22
2023-05-15T05:26:16.122Z,7.44
2023-05-15T05:27:18.326Z,7.38
2023-05-15T05:28:20.544Z,7.76
2023-05-15T05:29:22.832Z,6.85
2023-05-15T05:30:24.845Z,6.37
2023-05-15T05:31:26.914Z,7.41
2023-05-15T05:32:28.927Z,7.06
2023-05-15T05:33:30.884Z,6.97
2023-05-15T05:34:32.776Z,6.45
2023-05-15T05:35:34.755Z,5.04
2023-05-15T05:36:36.945Z,5.54
2023-05-15T05:37:41.130Z,5.17
2023-05-15T05:38:43.310Z,5.40
2023-05-15T05:39:45.296Z,5.26
2023-05-15T05:40:47.266Z,8.68
2023-05-15T05:41:49.241Z,13.57
2023-05-15T05:42:51.254Z,10.33
2023-05-15T05:43:53.248Z,5.65
2023-05-15T05:44:55.113Z,5.09
2023-05-15T05:45:57.017Z,5.07
2023-05-15T05:46:59.124Z,5.07
2023-05-15T05:48:01.117Z,5.76
2023-05-15T05:49:03.517Z,4.49
2023-05-15T05:50:07.209Z,4.48
2023-05-15T05:51:09.142Z,6.01
2023-05-15T05:52:11.121Z,5.24
2023-05-15T05:53:13.083Z,5.09
2023-05-15T05:54:14.950Z,5.32
2023-05-15T05:55:16.916Z,4.46
2023-05-15T05:56:18.889Z,4.57
2023-05-15T05:57:20.861Z,5.10
2023-05-15T05:58:26.093Z,4.79
2023-05-15T05:59:26.958Z,4.45
2023-05-15T06:00:29.304Z,3.17
2023-05-15T06:01:31.828Z,4.01
2023-05-15T06:02:34.112Z,3.93
2023-05-15T06:03:37.511Z,3.81
2023-05-15T06:04:39.786Z,3.74
2023-05-15T06:05:42.252Z,3.75
2023-05-15T06:06:44.224Z,3.93
2023-05-15T06:07:46.065Z,4.22
2023-05-15T06:08:48.074Z,4.25
2023-05-15T06:09:49.950Z,3.39
2023-05-15T06:10:52.016Z,3.37
2023-05-15T06:11:54.138Z,3.83
2023-05-15T06:12:55.988Z,3.95
2023-05-15T06:13:57.875Z,3.48
2023-05-15T06:14:59.749Z,3.86
2023-05-15T06:16:01.610Z,3.25
2023-05-15T06:17:04.414Z,3.89
2023-05-15T06:18:06.894Z,3.14
2023-05-15T06:19:09.586Z,3.28
2023-05-15T06:20:12.323Z,3.44
2023-05-15T06:21:14.409Z,3.17
2023-05-15T06:22:17.828Z,3.45
2023-05-15T06:23:20.080Z,3.16
2023-05-15T06:24:22.248Z,3.41
2023-05-15T06:25:24.456Z,3.54
2023-05-15T06:26:28.022Z,3.09
2023-05-15T06:27:30.322Z,3.25
2023-05-15T06:28:32.202Z,2.93
2023-05-15T06:29:34.051Z,3.06
2023-05-15T06:30:36.373Z,3.39
2023-05-15T06:31:38.526Z,2.96
2023-05-15T06:32:40.963Z,3.06
2023-05-15T06:33:42.915Z,3.59
2023-05-15T06:34:44.765Z,3.04
2023-05-15T06:35:46.935Z,2.72
2023-05-15T06:36:49.323Z,3.15
2023-05-15T06:37:51.178Z,3.21
2023-05-15T06:38:53.030Z,2.77
2023-05-15T06:39:54.929Z,2.60
2023-05-15T06:40:56.975Z,3.08
2023-05-15T06:41:59.251Z,3.22
2023-05-15T06:43:01.143Z,2.76
2023-05-15T06:44:04.237Z,3.01
2023-05-15T06:45:07.065Z,2.67
2023-05-15T06:46:09.285Z,2.56
2023-05-15T06:47:11.285Z,2.46
2023-05-15T06:48:13.450Z,3.04
2023-05-15T06:49:15.421Z,2.63
2023-05-15T06:50:17.690Z,2.95
2023-05-15T06:51:19.865Z,2.95
2023-05-15T06:52:21.750Z,3.01
2023-05-15T06:53:23.925Z,2.99
2023-05-15T06:54:25.807Z,2.67
2023-05-15T06:55:27.850Z,3.07
2023-05-15T06:56:30.984Z,2.43
2023-05-15T06:57:33.356Z,3.21
2023-05-15T06:58:35.418Z,2.82
2023-05-15T06:59:37.324Z,2.89
2023-05-15T07:00:39.274Z,3.79
2023-05-15T07:01:41.250Z,2.77
2023-05-15T07:02:43.215Z,2.98
2023-05-15T07:03:45.221Z,2.93
2023-05-15T07:04:47.218Z,2.44
2023-05-15T07:05:49.155Z,3.10
2023-05-15T07:06:51.220Z,2.71
2023-05-15T07:07:54.242Z,3.08
2023-05-15T07:08:56.114Z,3.29
2023-05-15T07:09:58.133Z,2.81
2023-05-15T07:11:00.199Z,3.08
2023-05-15T07:12:02.207Z,2.75
2023-05-15T07:13:04.144Z,2.68
2023-05-15T07:14:06.136Z,2.85
2023-05-15T07:15:10.873Z,2.61
2023-05-15T07:16:13.044Z,3.21
2023-05-15T07:17:15.069Z,2.83
2023-05-15T07:18:17.547Z,2.71
2023-05-15T07:19:19.699Z,2.88
2023-05-15T07:20:21.730Z,3.11
2023-05-15T07:21:23.692Z,2.15
2023-05-15T07:22:27.380Z,2.53
2023-05-15T07:23:29.447Z,2.68
2023-05-15T07:24:31.470Z,2.51
2023-05-15T07:25:33.790Z,3.23
2023-05-15T07:26:41.001Z,2.05
2023-05-15T07:27:39.921Z,2.78
2023-05-15T07:28:41.958Z,2.33
2023-05-15T07:29:43.887Z,2.35
2023-05-15T07:30:46.182Z,2.57
2023-05-15T07:31:48.136Z,2.46
2023-05-15T07:32:50.268Z,2.14
2023-05-15T07:33:52.249Z,2.49
2023-05-15T07:34:54.268Z,2.35
2023-05-15T07:35:56.145Z,3.11
2023-05-15T07:36:58.232Z,2.44
2023-05-15T07:38:00.214Z,1.85
2023-05-15T07:39:02.461Z,1.93
2023-05-15T07:40:05.975Z,2.08
2023-05-15T07:41:08.027Z,2.16
2023-05-15T07:42:10.055Z,1.78
2023-05-15T07:43:11.920Z,2.03
2023-05-15T07:44:13.840Z,2.06
2023-05-15T07:45:15.766Z,2.20
2023-05-15T07:46:19.014Z,2.09
2023-05-15T07:47:22.020Z,1.85
2023-05-15T07:48:23.961Z,2.22
2023-05-15T07:49:25.874Z,2.22
2023-05-15T07:50:27.941Z,1.75
2023-05-15T07:51:29.914Z,2.61
2023-05-15T07:52:31.821Z,2.33
2023-05-15T07:53:33.806Z,2.01
2023-05-15T07:54:35.730Z,2.50
2023-05-15T07:55:37.879Z,2.35
2023-05-15T07:56:40.995Z,2.44
2023-05-15T07:57:43.154Z,2.54
2023-05-15T07:58:45.190Z,2.33
2023-05-15T07:59:47.383Z,2.22
2023-05-15T08:00:49.474Z,2.51
2023-05-15T08:01:51.376Z,2.61
2023-05-15T08:02:53.322Z,2.78
2023-05-15T08:03:55.408Z,2.26
2023-05-15T08:04:57.547Z,2.64
2023-05-15T08:05:59.502Z,2.81
2023-05-15T08:07:01.734Z,2.01
2023-05-15T08:08:03.795Z,2.24
2023-05-15T08:09:05.662Z,2.28
2023-05-15T08:10:09.086Z,2.15
2023-05-15T08:11:10.988Z,2.58
2023-05-15T08:12:18.750Z,2.27
2023-05-15T08:13:20.637Z,2.66
2023-05-15T08:14:22.568Z,2.25
2023-05-15T08:15:24.836Z,2.30
2023-05-15T08:16:29.580Z,2.69
2023-05-15T08:17:31.643Z,2.31
2023-05-15T08:18:33.626Z,2.54
2023-05-15T08:19:36.189Z,2.33
2023-05-15T08:20:38.528Z,2.49
2023-05-15T08:21:40.500Z,2.99
2023-05-15T08:22:42.476Z,2.05
2023-05-15T08:23:44.397Z,1.91
2023-05-15T08:24:46.557Z,1.96
2023-05-15T08:25:48.435Z,2.11
2023-05-15T08:26:50.982Z,2.23
2023-05-15T08:27:52.837Z,1.92
2023-05-15T08:28:54.848Z,1.99
2023-05-15T08:29:56.679Z,2.23
2023-05-15T08:30:59.017Z,1.97
2023-05-15T08:32:01.813Z,2.18
2023-05-15T08:33:03.735Z,1.93
2023-05-15T08:34:05.901Z,2.43
2023-05-15T08:35:09.278Z,2.11
2023-05-15T08:36:11.808Z,1.87
2023-05-15T08:37:13.870Z,2.25
2023-05-15T08:38:15.827Z,1.86
2023-05-15T08:39:18.123Z,1.89
2023-05-15T08:40:25.711Z,1.89
2023-05-15T08:42:51.592Z,1.76
2023-05-15T08:43:56.351Z,2.96
2023-05-15T08:44:59.740Z,1.96
2023-05-15T08:46:02.674Z,1.92
2023-05-15T08:47:05.560Z,2.10
2023-05-15T08:48:18.664Z,1.75
2023-05-15T08:49:30.357Z,1.91
2023-05-15T08:50:33.326Z,1.90
2023-05-15T08:51:35.290Z,1.79
2023-05-15T08:52:38.414Z,1.89
2023-05-15T08:53:40.555Z,1.77
2023-05-15T08:54:42.418Z,1.83
2023-05-15T08:55:44.462Z,2.09
2023-05-15T08:56:47.543Z,2.58
2023-05-15T08:57:50.388Z,1.66
2023-05-15T08:58:52.799Z,1.89
2023-05-15T08:59:56.317Z,1.57
2023-05-15T09:00:58.790Z,1.73
2023-05-15T09:02:01.620Z,1.80
2023-05-15T09:03:04.628Z,1.77
2023-05-15T09:04:06.755Z,1.84
2023-05-15T09:05:10.044Z,1.79
2023-05-15T09:06:13.651Z,1.78
2023-05-15T09:07:16.178Z,2.12
2023-05-15T09:08:20.696Z,1.59
2023-05-15T09:09:24.112Z,2.65
2023-05-15T09:10:26.438Z,2.56
2023-05-15T09:11:30.850Z,1.65
2023-05-15T09:12:35.674Z,2.05
2023-05-15T09:13:37.605Z,1.92
2023-05-15T09:14:39.694Z,1.79
2023-05-15T09:15:42.084Z,2.58
2023-05-15T09:16:44.563Z,2.37
2023-05-15T09:17:48.628Z,1.57
2023-05-15T09:18:52.016Z,1.92
2023-05-15T09:19:54.075Z,1.92
2023-05-15T09:20:57.990Z,3.34
2023-05-15T09:22:20.176Z,2.59
2023-05-15T09:23:25.195Z,2.29
2023-05-15T09:24:27.238Z,2.30
2023-05-15T09:25:34.752Z,1.57
2023-05-15T09:26:36.836Z,1.79
2023-05-15T09:27:45.145Z,1.79
2023-05-15T09:28:49.379Z,1.94
2023-05-15T09:29:51.434Z,1.90
2023-05-15T09:32:13.260Z,1.99
2023-05-15T09:33:16.789Z,2.13
2023-05-15T09:34:18.796Z,2.46
2023-05-15T09:35:36.066Z,2.32
2023-05-15T09:36:43.099Z,2.50
2023-05-15T09:37:45.128Z,2.63
2023-05-15T09:38:46.970Z,2.17
2023-05-15T09:39:48.819Z,1.99
2023-05-15T09:41:03.261Z,2.28
2023-05-15T09:42:06.573Z,1.67
2023-05-15T09:43:11.474Z,2.02
2023-05-15T09:44:22.111Z,2.16
2023-05-15T09:45:25.591Z,1.75
2023-05-15T09:46:28.614Z,1.77
2023-05-15T09:47:31.044Z,1.91
2023-05-15T09:48:34.698Z,1.95
2023-05-15T09:49:38.866Z,3.29
2023-05-15T09:50:41.051Z,2.04
2023-05-15T09:51:43.585Z,1.71
2023-05-15T09:52:45.705Z,1.69
2023-05-15T09:53:49.795Z,2.21
2023-05-15T09:54:51.797Z,2.09
2023-05-15T09:55:53.976Z,2.08
2023-05-15T09:56:56.382Z,2.11
2023-05-15T09:58:06.759Z,1.98
2023-05-15T09:59:14.696Z,2.21
2023-05-15T10:00:19.074Z,1.76
2023-05-15T10:01:22.757Z,1.52
2023-05-15T10:02:28.702Z,1.78
2023-05-15T10:03:30.971Z,2.22
2023-05-15T10:04:35.975Z,1.75
2023-05-15T10:05:43.522Z,1.78
2023-05-15T10:06:46.561Z,2.24
2023-05-15T10:07:52.189Z,1.91
2023-05-15T10:08:54.710Z,1.96
2023-05-15T10:09:57.203Z,2.10
2023-05-15T10:11:00.955Z,1.82
2023-05-15T10:12:04.936Z,1.53
2023-05-15T10:13:08.601Z,1.92
2023-05-15T10:14:13.318Z,2.16
2023-05-15T10:15:19.693Z,1.91
2023-05-15T10:16:23.165Z,1.65
2023-05-15T10:17:30.695Z,2.00
2023-05-15T10:18:35.327Z,1.88
2023-05-15T10:19:50.458Z,2.12
2023-05-15T10:20:42.509Z,1.94
2023-05-15T10:21:45.277Z,2.21
2023-05-15T10:24:00.749Z,2.24
2023-05-15T10:25:23.258Z,1.86
2023-05-15T10:27:46.909Z,1.69
2023-05-15T10:28:49.560Z,1.62
2023-05-15T10:29:51.774Z,1.62
2023-05-15T10:30:56.491Z,2.00
2023-05-15T10:32:00.813Z,2.34
2023-05-15T10:33:07.242Z,1.91
2023-05-15T10:34:11.239Z,1.95
2023-05-15T10:35:14.433Z,2.03
2023-05-15T10:36:18.647Z,1.70
2023-05-15T10:37:21.740Z,1.89
2023-05-15T10:38:25.139Z,1.64
2023-05-15T10:39:28.440Z,1.89
2023-05-15T10:40:32.339Z,1.75
2023-05-15T10:41:39.243Z,1.87
2023-05-15T10:42:44.109Z,2.08
2023-05-15T10:43:49.036Z,1.82
2023-05-15T10:44:52.932Z,2.09
2023-05-15T10:45:56.201Z,1.98
2023-05-15T10:46:59.239Z,1.80
2023-05-15T10:48:02.297Z,2.33
2023-05-15T10:49:04.880Z,2.04
2023-05-15T10:50:08.794Z,1.72
2023-05-15T10:51:28.470Z,1.74
2023-05-15T10:52:35.229Z,1.92
2023-05-15T10:53:37.241Z,1.77
2023-05-15T10:54:39.247Z,1.83
2023-05-15T10:55:41.411Z,2.21
2023-05-15T10:56:44.309Z,2.10
2023-05-15T10:57:46.477Z,1.97
2023-05-15T10:58:49.556Z,1.65
2023-05-15T10:59:51.645Z,2.11
2023-05-15T11:00:53.900Z,2.21
2023-05-15T11:01:57.696Z,2.08
2023-05-15T11:02:59.701Z,2.36
2023-05-15T11:04:07.414Z,1.96
2023-05-15T11:05:09.616Z,2.28
2023-05-15T11:06:12.388Z,2.19
2023-05-15T11:07:17.179Z,2.50
2023-05-15T11:08:23.863Z,2.56
2023-05-15T11:09:36.634Z,2.17
2023-05-15T11:10:39.069Z,2.35
2023-05-15T11:11:58.260Z,2.01
2023-05-15T11:13:01.980Z,1.72
2023-05-15T11:14:07.648Z,2.04
2023-05-15T11:15:13.287Z,2.21
2023-05-15T11:16:35.946Z,2.32
2023-05-15T11:17:38.147Z,2.40
2023-05-15T11:18:40.129Z,2.38
2023-05-15T11:19:51.813Z,2.69
2023-05-15T11:21:00.772Z,2.37
2023-05-15T11:22:17.638Z,2.19
2023-05-15T11:23:24.527Z,1.75
2023-05-15T11:24:32.158Z,2.01
2023-05-15T11:25:36.051Z,2.05
2023-05-15T11:26:42.781Z,2.34
2023-05-15T11:27:45.761Z,2.34
2023-05-15T11:28:47.606Z,1.87
2023-05-15T11:30:16.523Z,1.76
2023-05-15T11:31:22.299Z,2.39
2023-05-15T11:32:31.968Z,2.11
2023-05-15T11:33:34.056Z,2.33
2023-05-15T11:34:39.756Z,3.61
2023-05-15T11:35:44.587Z,1.97
2023-05-15T11:36:47.074Z,1.88
2023-05-15T11:37:53.132Z,2.14
2023-05-15T11:38:55.626Z,2.03
2023-05-15T11:39:57.603Z,1.91
2023-05-15T11:40:59.996Z,2.48
2023-05-15T11:42:11.410Z,1.86
2023-05-15T11:43:22.529Z,1.70
2023-05-15T11:45:29.008Z,1.57
2023-05-15T11:46:32.559Z,1.88
2023-05-15T11:47:34.847Z,1.72
2023-05-15T11:48:43.018Z,2.07
2023-05-15T11:49:45.180Z,2.01
2023-05-15T11:50:47.153Z,1.61
2023-05-15T11:51:50.460Z,1.64
2023-05-15T11:52:52.789Z,1.72
2023-05-15T11:53:56.463Z,1.63
2023-05-15T11:54:59.506Z,1.79
2023-05-15T11:56:01.395Z,1.38
2023-05-15T11:57:06.941Z,2.00
2023-05-15T11:58:17.129Z,1.55
2023-05-15T11:59:20.645Z,1.78
2023-05-15T12:00:23.473Z,2.02
2023-05-15T12:01:25.958Z,1.59
2023-05-15T12:02:27.941Z,1.39
2023-05-15T12:03:33.954Z,1.79
2023-05-15T12:04:36.600Z,1.43
2023-05-15T12:05:47.264Z,1.88
2023-05-15T12:06:45.124Z,2.14
2023-05-15T12:07:47.532Z,1.89
2023-05-15T12:08:53.358Z,2.31
2023-05-15T12:09:56.118Z,1.62
2023-05-15T12:10:59.378Z,2.05
2023-05-15T12:12:01.341Z,1.66
2023-05-15T12:13:03.216Z,1.50
2023-05-15T12:14:05.079Z,2.05
2023-05-15T12:15:15.590Z,2.53
2023-05-15T12:16:17.796Z,2.32
2023-05-15T12:17:20.139Z,2.37
2023-05-15T12:18:22.668Z,3.96
2023-05-15T12:20:39.715Z,2.21
2023-05-15T12:21:46.170Z,2.16
2023-05-15T12:22:48.101Z,2.10
2023-05-15T12:24:03.502Z,2.09
2023-05-15T12:24:58.920Z,2.24
2023-05-15T12:26:02.320Z,1.84
2023-05-15T12:27:04.663Z,1.76
2023-05-15T12:28:06.794Z,1.91
2023-05-15T12:29:09.058Z,1.90
2023-05-15T12:30:13.879Z,1.92
2023-05-15T12:31:18.459Z,3.32
2023-05-15T12:32:21.078Z,2.45
2023-05-15T12:33:24.139Z,1.55
2023-05-15T12:34:26.601Z,1.51
2023-05-15T12:35:29.411Z,1.81
2023-05-15T12:36:31.719Z,2.65
2023-05-15T12:37:35.659Z,2.11
2023-05-15T12:38:38.817Z,1.78
2023-05-15T12:39:54.860Z,2.48
2023-05-15T12:40:57.976Z,2.27
2023-05-15T12:42:00.176Z,2.41
2023-05-15T12:43:06.824Z,2.05
2023-05-15T12:44:17.998Z,2.11
2023-05-15T12:46:24.765Z,2.37
2023-05-15T12:47:27.503Z,2.21
2023-05-15T12:48:30.308Z,2.23
2023-05-15T12:49:37.067Z,2.45
2023-05-15T12:50:40.474Z,2.15
2023-05-15T12:51:43.175Z,2.44
2023-05-15T12:52:58.819Z,2.29
2023-05-15T12:54:00.841Z,2.49
2023-05-15T12:55:03.098Z,2.21
2023-05-15T12:56:06.192Z,2.58
2023-05-15T12:57:10.690Z,2.67
2023-05-15T12:58:14.715Z,2.28
2023-05-15T12:59:18.047Z,2.66
2023-05-15T13:00:21.637Z,2.92
2023-05-15T13:01:23.622Z,2.60
2023-05-15T13:02:26.502Z,2.31
2023-05-15T13:03:31.819Z,3.05
2023-05-15T13:04:33.981Z,2.81
2023-05-15T13:05:37.653Z,2.95
2023-05-15T13:06:46.560Z,3.12
2023-05-15T13:07:44.344Z,2.15
2023-05-15T13:08:47.820Z,2.66
2023-05-15T13:10:06.938Z,2.93
2023-05-15T13:11:12.993Z,2.56
2023-05-15T13:12:19.482Z,2.65
2023-05-15T13:13:21.668Z,2.76
2023-05-15T13:14:23.830Z,2.54
2023-05-15T13:15:35.831Z,2.53
2023-05-15T13:16:38.133Z,2.29
2023-05-15T13:17:40.927Z,2.17
2023-05-15T13:18:42.974Z,2.25
2023-05-15T13:19:45.001Z,2.69
2023-05-15T13:20:49.936Z,2.45
2023-05-15T13:21:51.920Z,2.18
2023-05-15T13:22:53.997Z,2.24
2023-05-15T13:23:56.410Z,2.23
2023-05-15T13:24:58.514Z,2.31
2023-05-15T13:26:01.575Z,3.21
2023-05-15T13:27:04.260Z,2.11
2023-05-15T13:28:07.203Z,2.17
2023-05-15T13:29:09.188Z,2.65
2023-05-15T13:30:13.062Z,1.92
2023-05-15T13:31:15.020Z,1.93
2023-05-15T13:32:17.684Z,2.19
2023-05-15T13:33:19.608Z,2.16
2023-05-15T13:34:21.738Z,2.19
2023-05-15T13:35:23.835Z,2.03
2023-05-15T13:36:26.090Z,1.88
2023-05-15T13:37:28.072Z,1.59
2023-05-15T13:38:29.920Z,1.88
2023-05-15T13:39:32.777Z,2.18
2023-05-15T13:40:34.787Z,1.82
2023-05-15T13:41:36.985Z,1.99
2023-05-15T13:43:51.085Z,2.21
2023-05-15T13:44:53.017Z,1.51
2023-05-15T13:45:55.218Z,3.82
2023-05-15T13:46:57.294Z,5.81
2023-05-15T13:47:59.358Z,8.93
2023-05-15T13:49:01.395Z,3.06
2023-05-15T13:50:03.734Z,2.57
2023-05-15T13:51:05.618Z,2.56
2023-05-15T13:52:07.494Z,1.79
2023-05-15T13:53:09.597Z,1.99
2023-05-15T13:54:11.482Z,1.53
2023-05-15T13:55:13.580Z,2.01
2023-05-15T13:56:15.739Z,1.76
2023-05-15T13:57:18.437Z,1.94
2023-05-15T13:58:20.300Z,1.81
2023-05-15T13:59:22.391Z,1.77
2023-05-15T14:00:24.852Z,2.22
2023-05-15T14:01:27.133Z,1.77
2023-05-15T14:02:29.136Z,1.70
2023-05-15T14:03:31.149Z,1.63
2023-05-15T14:04:33.114Z,2.25
2023-05-15T14:05:34.965Z,1.60
2023-05-15T14:06:37.115Z,1.80
2023-05-15T14:07:42.686Z,1.96
2023-05-15T14:08:44.694Z,1.86
2023-05-15T14:09:46.809Z,1.97
2023-05-15T14:10:48.944Z,1.61
2023-05-15T14:11:50.936Z,1.60
2023-05-15T14:12:52.813Z,1.79
2023-05-15T14:13:54.658Z,2.06
2023-05-15T14:14:57.487Z,1.84
2023-05-15T14:15:59.350Z,1.49
2023-05-15T14:17:01.511Z,1.86
2023-05-15T14:18:03.700Z,1.88